Time;durP1;ratioP1;P1;durP2;ratioP2;P2;SDS_P1;SDS_P2;PMS_P1;PMS_P2;Temp;Humidity;BMP_temperature;BMP_pressure;BME280_temperature;BME280_humidity;BME280_pressure;Samples;Min_cycle;Max_cycle;Signal;HPM_P1;HPM_P2
2023/01/01 00:01:06;;;;;;;1999.90;999.90;;;;;;;10.18;100.00;95688.09;5099020;28;20232;-60
2023/01/01 00:03:31;;;;;;;1999.90;999.90;;;;;;;10.17;100.00;95691.22;5098711;28;20172;-59
2023/01/01 00:05:56;;;;;;;1999.90;999.90;;;;;;;10.15;100.00;95699.78;5098352;28;20199;-60
2023/01/01 00:08:22;;;;;;;1999.90;999.90;;;;;;;10.17;100.00;95693.94;5098364;28;20218;-72
2023/01/01 00:10:47;;;;;;;1999.90;999.90;;;;;;;10.31;100.00;95696.63;5098446;28;20172;-61
2023/01/01 00:13:13;;;;;;;1999.90;999.90;;;;;;;10.41;100.00;95698.56;5131302;22;20683;-63
2023/01/01 00:15:38;;;;;;;1999.90;999.90;;;;;;;10.46;100.00;95692.69;5094513;28;20176;-65
2023/01/01 00:18:03;;;;;;;1999.90;999.90;;;;;;;10.65;100.00;95711.34;5094321;28;20218;-63
2023/01/01 00:20:29;;;;;;;1999.90;999.90;;;;;;;10.71;100.00;95709.78;5094564;28;20177;-64
2023/01/01 00:22:54;;;;;;;1999.90;999.90;;;;;;;10.50;100.00;95721.56;5094324;28;20208;-64
2023/01/01 00:25:19;;;;;;;1999.90;999.90;;;;;;;10.44;100.00;95741.44;5094282;28;20183;-64
2023/01/01 00:27:45;;;;;;;1999.90;999.90;;;;;;;10.32;100.00;95755.50;5094417;28;20226;-58
2023/01/01 00:30:11;;;;;;;1999.90;999.90;;;;;;;10.18;100.00;95741.88;5094407;28;20580;-59
2023/01/01 00:32:36;;;;;;;1999.90;999.90;;;;;;;10.08;100.00;95733.31;5094135;28;20200;-59
2023/01/01 00:35:02;;;;;;;1999.90;999.90;;;;;;;10.00;100.00;95742.66;5094245;28;20227;-60
2023/01/01 00:37:27;;;;;;;1999.90;999.90;;;;;;;9.90;100.00;95737.97;5093939;28;20539;-60
2023/01/01 00:39:53;;;;;;;1999.90;999.90;;;;;;;9.89;100.00;95747.34;5094699;28;20181;-60
2023/01/01 00:42:18;;;;;;;1999.90;999.90;;;;;;;9.87;100.00;95746.94;5093939;28;20172;-60
2023/01/01 00:44:44;;;;;;;1999.90;999.90;;;;;;;9.80;100.00;95741.47;5094124;28;20176;-59
2023/01/01 00:47:09;;;;;;;1999.90;999.90;;;;;;;9.77;100.00;95752.41;5093979;28;20328;-57
2023/01/01 00:49:34;;;;;;;1999.90;999.90;;;;;;;9.75;100.00;95758.25;5093815;28;20169;-64
2023/01/01 00:52:00;;;;;;;1999.90;999.90;;;;;;;9.75;100.00;95744.59;5094072;28;20263;-64
2023/01/01 00:54:25;;;;;;;1999.90;999.90;;;;;;;9.75;100.00;95747.31;5094186;28;20185;-65
2023/01/01 00:56:50;;;;;;;1999.90;999.90;;;;;;;9.72;100.00;95750.81;5093868;28;20204;-66
2023/01/01 00:59:16;;;;;;;1999.90;999.90;;;;;;;9.72;100.00;95759.00;5093545;28;20200;-64
2023/01/01 01:01:41;;;;;;;1999.90;999.90;;;;;;;9.69;100.00;95754.31;5093743;28;20230;-64
2023/01/01 01:04:08;;;;;;;1999.90;999.90;;;;;;;9.67;100.00;95762.13;5099912;28;20207;-58
2023/01/01 01:06:34;;;;;;;1999.90;999.90;;;;;;;9.56;100.00;95755.88;5114506;28;20253;-59
2023/01/01 01:09:00;;;;;;;1999.90;999.90;;;;;;;9.56;100.00;95753.16;5113776;28;20174;-57
2023/01/01 01:11:25;;;;;;;1999.90;999.90;;;;;;;9.56;100.00;95755.88;5113975;28;20210;-58
2023/01/01 01:13:53;;;;;;;1999.90;999.90;;;;;;;9.53;100.00;95762.09;5113858;28;20251;-57
2023/01/01 01:16:25;;;;;;;1999.90;999.90;;;;;;;9.45;100.00;95757.81;5113683;28;20179;-57
2023/01/01 01:18:56;;;;;;;1999.90;999.90;;;;;;;9.44;100.00;95763.66;5114469;28;20246;-58
2023/01/01 01:21:23;;;;;;;1999.90;999.90;;;;;;;9.49;100.00;95774.94;5113577;28;20171;-57
2023/01/01 01:23:50;;;;;;;1999.90;999.90;;;;;;;9.56;100.00;95777.69;5114963;28;20633;-63
2023/01/01 01:26:18;;;;;;;1999.90;999.90;;;;;;;9.57;100.00;95779.25;5113382;28;20197;-67
2023/01/01 01:28:44;;;;;;;1999.90;999.90;;;;;;;9.66;100.00;95787.81;5113861;28;20181;-67
2023/01/01 01:31:10;;;;;;;1999.90;999.90;;;;;;;9.89;100.00;95785.53;5114482;28;20168;-68
2023/01/01 01:33:36;;;;;;;1999.90;999.90;;;;;;;9.74;100.00;95788.63;5114468;28;20168;-66
2023/01/01 01:36:03;;;;;;;1999.90;999.90;;;;;;;9.66;100.00;95787.81;5113642;28;20235;-66
2023/01/01 01:38:28;;;;;;;1999.90;999.90;;;;;;;9.66;100.00;95790.53;5113920;28;20183;-67
2023/01/01 01:40:54;;;;;;;1999.90;999.90;;;;;;;9.70;100.00;95793.28;5113585;28;20176;-65
2023/01/01 01:43:20;;;;;;;1999.90;999.90;;;;;;;9.65;100.00;95790.94;5113417;28;20171;-68
2023/01/01 01:45:46;;;;;;;1999.90;999.90;;;;;;;9.55;100.00;95797.91;5113555;28;20176;-58
2023/01/01 01:48:11;;;;;;;1999.90;999.90;;;;;;;9.42;100.00;95793.22;5113699;28;20181;-57
2023/01/01 01:50:41;;;;;;;1999.90;999.90;;;;;;;9.34;100.00;95795.16;5113190;28;20233;-57
2023/01/01 01:53:11;;;;;;;1999.90;999.90;;;;;;;9.37;100.00;95797.09;5113769;28;20203;-58
2023/01/01 01:55:42;;;;;;;1999.90;999.90;;;;;;;9.36;100.00;95801.00;5113700;28;20197;-58
2023/01/01 01:58:10;;;;;;;1999.90;999.90;;;;;;;9.36;100.00;95795.53;5113437;28;20164;-57
2023/01/01 02:00:35;;;;;;;1999.90;999.90;;;;;;;9.33;100.00;95798.28;5113595;28;20202;-59
2023/01/01 02:03:11;;;;;;;1999.90;999.90;;;;;;;9.25;100.00;95783.84;5113317;28;20241;-58
2023/01/01 02:05:39;;;;;;;1999.90;999.90;;;;;;;9.20;100.00;95781.50;5112949;28;20197;-58
2023/01/01 02:08:05;;;;;;;1999.90;999.90;;;;;;;9.17;100.00;95784.97;5114202;28;20582;-58
2023/01/01 02:10:31;;;;;;;1999.90;999.90;;;;;;;9.23;100.00;95775.28;5117461;28;20191;-58
2023/01/01 02:12:57;;;;;;;1999.90;999.90;;;;;;;9.26;100.00;95766.31;5117010;28;20576;-58
2023/01/01 02:15:27;;;;;;;1999.90;999.90;;;;;;;9.34;100.00;95765.19;5117297;28;20172;-58
2023/01/01 02:18:02;;;;;;;1999.90;999.90;;;;;;;9.40;100.00;95758.19;5117732;28;20181;-57
2023/01/01 02:20:30;;;;;;;1999.90;999.90;;;;;;;9.66;100.00;95763.28;5117478;28;20243;-58
2023/01/01 02:23:23;;;;;;;1999.90;999.90;;;;;;;9.72;100.00;95774.56;5117209;28;20171;-60
2023/01/01 02:26:38;;;;;;;1999.90;999.90;;;;;;;9.70;100.00;95772.25;5117288;28;20168;-60
2023/01/01 02:29:12;;;;;;;1999.90;999.90;;;;;;;9.76;100.00;95773.44;5117852;28;20255;-59
2023/01/01 02:31:44;;;;;;;1999.90;999.90;;;;;;;9.74;100.00;95767.59;5117936;28;20168;-59
2023/01/01 02:34:13;;;;;;;1999.90;999.90;;;;;;;9.78;100.00;95765.66;5117097;28;20156;-60
2023/01/01 02:36:47;;;;;;;1999.90;999.90;;;;;;;9.83;100.00;95764.47;5117756;28;20172;-56
2023/01/01 02:39:15;;;;;;;1999.90;999.90;;;;;;;9.86;100.00;95764.47;5117650;28;20164;-59
2023/01/01 02:41:44;;;;;;;1999.90;999.90;;;;;;;9.94;100.00;95762.50;5117000;28;20229;-60
2023/01/01 02:44:10;;;;;;;1999.90;999.90;;;;;;;10.01;100.00;95760.59;5117101;28;20172;-61
2023/01/01 02:46:36;;;;;;;1999.90;999.90;;;;;;;10.05;100.00;95758.66;5116715;28;20191;-60
2023/01/01 02:49:02;;;;;;;1999.90;999.90;;;;;;;10.22;100.00;95756.28;5116783;28;20530;-60
2023/01/01 02:51:38;;;;;;;1999.90;999.90;;;;;;;10.16;100.00;95757.88;5117464;28;20252;-60
2023/01/01 02:54:16;;;;;;;1999.90;999.90;;;;;;;10.16;100.00;95755.16;5116753;28;20180;-58
2023/01/01 02:56:45;;;;;;;1999.90;999.90;;;;;;;10.15;100.00;95759.81;5117614;28;20175;-58
2023/01/01 03:02:33;;;;;;;1999.90;999.90;;;;;;;10.21;100.00;95762.94;5117697;28;20167;-71
2023/01/01 03:05:09;;;;;;;1999.90;999.90;;;;;;;10.24;100.00;95767.63;5116629;28;20286;-75
2023/01/01 03:07:49;;;;;;;1999.90;999.90;;;;;;;10.23;100.00;95760.59;5116166;28;20278;-74
2023/01/01 03:10:20;;;;;;;1999.90;999.90;;;;;;;10.19;100.00;95768.03;5116772;28;20159;-74
2023/01/01 03:13:09;;;;;;;1999.90;999.90;;;;;;;10.14;100.00;95766.47;5116735;28;20220;-57
2023/01/01 03:16:01;;;;;;;1999.90;999.90;;;;;;;10.13;100.00;95762.94;5116889;28;20578;-57
2023/01/01 03:18:35;;;;;;;1999.90;999.90;;;;;;;10.12;100.00;95759.84;5116841;28;20200;-71
2023/01/01 03:21:04;;;;;;;1999.90;999.90;;;;;;;10.07;100.00;95759.06;5116274;28;20164;-71
2023/01/01 03:23:36;;;;;;;1999.90;999.90;;;;;;;10.05;100.00;95766.84;5116014;28;20179;-71
2023/01/01 03:26:06;;;;;;;1999.90;999.90;;;;;;;9.98;100.00;95766.81;5116757;28;20309;-72
2023/01/01 03:28:38;;;;;;;1999.90;999.90;;;;;;;9.90;100.00;95765.25;5115985;28;20173;-71
2023/01/01 03:31:05;;;;;;;1999.90;999.90;;;;;;;9.82;100.00;95771.88;5115983;28;20622;-71
2023/01/01 03:33:43;;;;;;;1999.90;999.90;;;;;;;9.89;100.00;95769.16;5115945;28;20176;-57
2023/01/01 03:36:13;;;;;;;1999.90;999.90;;;;;;;9.76;100.00;95775.34;5115855;28;20179;-60
2023/01/01 03:38:45;;;;;;;1999.90;999.90;;;;;;;9.77;100.00;95774.97;5115965;28;20176;-60
2023/01/01 03:41:17;;;;;;;1999.90;999.90;;;;;;;9.76;100.00;95783.53;5116236;28;20169;-60
2023/01/01 03:43:49;;;;;;;1999.90;999.90;;;;;;;9.68;100.00;95785.50;5115750;28;20527;-60
2023/01/01 03:46:20;;;;;;;1999.90;999.90;;;;;;;9.65;100.00;95786.25;5116598;28;20214;-60
2023/01/01 03:48:58;;;;;;;1999.90;999.90;;;;;;;9.58;100.00;95790.94;5116065;28;20192;-60
2023/01/01 03:51:45;;;;;;;1999.90;999.90;;;;;;;9.50;100.00;95790.13;5116228;28;20178;-59
2023/01/01 03:54:45;;;;;;;1999.90;999.90;;;;;;;9.45;100.00;95804.16;5115729;28;20180;-58
2023/01/01 03:57:16;;;;;;;1999.90;999.90;;;;;;;9.41;100.00;95806.09;5116049;28;20180;-59
2023/01/01 03:59:54;;;;;;;1999.90;999.90;;;;;;;9.31;100.00;95809.56;5116133;28;20184;-58
2023/01/01 04:02:28;;;;;;;1999.90;999.90;;;;;;;9.23;100.00;95813.44;5116018;27;20177;-58
2023/01/01 04:04:56;;;;;;;1999.90;999.90;;;;;;;9.12;100.00;95820.00;5116376;28;20240;-58
2023/01/01 04:07:22;;;;;;;1999.90;999.90;;;;;;;8.97;100.00;95812.91;5115803;28;20215;-58
2023/01/01 04:09:50;;;;;;;1999.90;999.90;;;;;;;8.87;100.00;95810.91;5115318;28;20321;-57
2023/01/01 04:12:17;;;;;;;1999.90;999.90;;;;;;;8.78;100.00;95813.22;5115040;28;20220;-67
2023/01/01 04:14:43;;;;;;;1999.90;999.90;;;;;;;8.79;100.00;95815.56;5115767;28;20180;-67
2023/01/01 04:17:10;;;;;;;1999.90;999.90;;;;;;;8.77;100.00;95817.06;5115099;28;20187;-67
2023/01/01 04:19:36;;;;;;;1999.90;999.90;;;;;;;8.74;100.00;95813.19;5114973;28;20182;-67
2023/01/01 04:22:02;;;;;;;1999.90;999.90;;;;;;;8.76;100.00;95810.88;5114720;28;20187;-67
2023/01/01 04:24:28;;;;;;;1999.90;999.90;;;;;;;8.79;100.00;95799.22;5115022;28;20204;-66
2023/01/01 04:26:54;;;;;;;1999.90;999.90;;;;;;;8.81;100.00;95802.31;5115842;28;20703;-60
2023/01/01 04:29:20;;;;;;;1999.90;999.90;;;;;;;8.88;100.00;95796.91;5114685;28;20172;-57
2023/01/01 04:31:45;;;;;;;1999.90;999.90;;;;;;;8.90;100.00;95800.06;5114340;28;20539;-57
2023/01/01 04:34:11;;;;;;;1999.90;999.90;;;;;;;8.90;100.00;95797.34;5115452;28;20183;-58
2023/01/01 04:36:37;;;;;;;1999.90;999.90;;;;;;;8.90;100.00;95805.50;5114500;28;20636;-57
2023/01/01 04:39:03;;;;;;;1999.90;999.90;;;;;;;8.94;100.00;95808.22;5115440;28;20263;-58
2023/01/01 04:41:28;;;;;;;1999.90;999.90;;;;;;;8.92;100.00;95803.16;5115325;28;20217;-57
2023/01/01 04:43:54;;;;;;;1999.90;999.90;;;;;;;8.92;100.00;95814.06;5115335;28;20515;-56
2023/01/01 04:46:20;;;;;;;1999.90;999.90;;;;;;;8.88;100.00;95813.25;5114658;28;20211;-57
2023/01/01 04:48:46;;;;;;;1999.90;999.90;;;;;;;8.83;100.00;95808.19;5115231;28;20175;-64
2023/01/01 04:51:13;;;;;;;1999.90;999.90;;;;;;;8.76;100.00;95815.53;5114374;28;20518;-65
2023/01/01 04:53:40;;;;;;;1999.90;999.90;;;;;;;8.71;100.00;95815.91;5115122;28;20194;-64
2023/01/01 04:56:11;;;;;;;1999.90;999.90;;;;;;;8.68;100.00;95819.38;5114542;28;20270;-64
2023/01/01 04:58:38;;;;;;;1999.90;999.90;;;;;;;8.67;100.00;95818.59;5114259;28;20174;-64
2023/01/01 05:01:04;;;;;;;1999.90;999.90;;;;;;;8.66;100.00;95825.19;5114383;28;20176;-64
2023/01/01 05:03:30;;;;;;;1999.90;999.90;;;;;;;8.60;100.00;95823.97;5114029;28;20175;-71
2023/01/01 05:06:04;;;;;;;1999.90;999.90;;;;;;;8.59;100.00;95818.91;5114075;28;20175;-59
2023/01/01 05:08:35;;;;;;;1999.90;999.90;;;;;;;8.61;100.00;95822.84;5114623;28;20309;-61
2023/01/01 05:11:05;;;;;;;1999.90;999.90;;;;;;;8.66;100.00;95817.03;5115241;28;20696;-60
2023/01/01 05:13:30;;;;;;;1999.90;999.90;;;;;;;8.66;100.00;95818.97;5114108;28;20334;-60
2023/01/01 05:15:56;;;;;;;1999.90;999.90;;;;;;;8.67;100.00;95834.91;5114286;28;20171;-60
2023/01/01 05:18:21;;;;;;;1999.90;999.90;;;;;;;8.64;100.00;95835.66;5114109;28;20187;-60
2023/01/01 05:20:47;;;;;;;1999.90;999.90;;;;;;;8.55;100.00;95837.97;5114159;28;20217;-60
2023/01/01 05:23:15;;;;;;;1999.90;999.90;;;;;;;8.52;100.00;95837.94;5114162;28;20179;-60
2023/01/01 05:25:41;;;;;;;1999.90;999.90;;;;;;;8.45;100.00;95833.22;5113961;28;20676;-58
2023/01/01 05:28:06;;;;;;;1999.90;999.90;;;;;;;8.39;100.00;95829.31;5113992;28;20210;-58
2023/01/01 05:30:32;;;;;;;1999.90;999.90;;;;;;;8.35;100.00;95833.94;5114160;28;20247;-58
2023/01/01 05:32:57;;;;;;;1999.90;999.90;;;;;;;8.30;100.00;95830.78;5113467;28;20220;-59
2023/01/01 05:35:22;;;;;;;1999.90;999.90;;;;;;;8.29;100.00;95830.00;5114497;28;20164;-58
2023/01/01 05:37:47;;;;;;;1999.90;999.90;;;;;;;8.24;100.00;95832.28;5114026;28;20182;-58
2023/01/01 05:40:13;;;;;;;1999.90;999.90;;;;;;;8.21;100.00;95827.56;5114746;28;20325;-71
2023/01/01 05:42:38;;;;;;;1999.90;999.90;;;;;;;8.18;100.00;95826.38;5115605;28;20197;-59
2023/01/01 05:45:04;;;;;;;1999.90;999.90;;;;;;;8.15;100.00;95829.06;5118166;28;20206;-59
2023/01/01 05:47:29;;;;;;;1999.90;999.90;;;;;;;8.26;100.00;95838.91;5118750;28;20196;-59
2023/01/01 05:49:55;;;;;;;1999.90;999.90;;;;;;;8.30;100.00;95838.97;5118521;28;20224;-59
2023/01/01 05:52:20;;;;;;;1999.90;999.90;;;;;;;8.28;100.00;95839.34;5118475;28;20235;-59
2023/01/01 05:54:45;;;;;;;1999.90;999.90;;;;;;;8.19;100.00;95843.50;5118130;28;20173;-59
2023/01/01 05:57:11;;;;;;;1999.90;999.90;;;;;;;8.07;100.00;95833.69;5118629;28;20178;-60
2023/01/01 05:59:36;;;;;;;1999.90;999.90;;;;;;;8.09;100.00;95836.78;5117929;28;20167;-66
2023/01/01 06:02:01;;;;;;;1999.90;999.90;;;;;;;8.09;100.00;95847.66;5117790;28;20273;-59
2023/01/01 06:04:27;;;;;;;1999.90;999.90;;;;;;;8.02;100.00;95855.00;5118226;28;20196;-59
2023/01/01 06:06:52;;;;;;;1999.90;999.90;;;;;;;7.98;100.00;95852.22;5117550;28;20202;-60
2023/01/01 06:09:17;;;;;;;1999.90;999.90;;;;;;;7.92;100.00;95853.75;5118527;28;20181;-59
2023/01/01 06:11:43;;;;;;;1999.90;999.90;;;;;;;7.84;100.00;95860.28;5117776;28;20164;-59
2023/01/01 06:14:08;;;;;;;1999.90;999.90;;;;;;;7.84;100.00;95852.13;5117165;28;20222;-59
2023/01/01 06:16:34;;;;;;;1999.90;999.90;;;;;;;7.92;100.00;95864.63;5117777;28;20218;-59
2023/01/01 06:18:59;;;;;;;1999.90;999.90;;;;;;;8.14;100.00;95860.94;5117989;28;20171;-60
2023/01/01 06:21:26;;;;;;;1999.90;999.90;;;;;;;8.43;100.00;95862.75;5117357;28;20171;-64
2023/01/01 06:23:53;;;;;;;1999.90;999.90;;;;;;;8.65;100.00;95875.38;5117473;28;20179;-65
2023/01/01 06:26:21;;;;;;;1999.90;999.90;;;;;;;8.93;100.00;95870.06;5117461;28;20199;-64
2023/01/01 06:28:48;;;;;;;1999.90;999.90;;;;;;;9.27;100.00;95866.00;5117422;28;20168;-64
2023/01/01 06:31:16;;;;;;;1999.90;999.90;;;;;;;9.50;100.00;95874.63;5117260;28;20658;-64
2023/01/01 06:33:41;;;;;;;1999.90;999.90;;;;;;;9.82;100.00;95872.81;5117323;28;20220;-64
2023/01/01 06:36:09;;;;;;;1999.90;999.90;;;;;;;10.13;100.00;95881.44;5117183;28;20172;-59
2023/01/01 06:38:37;;;;;;;1999.90;999.90;;;;;;;10.27;100.00;95881.47;5116809;28;20209;-64
2023/01/01 06:41:05;;;;;;;1999.90;999.90;;;;;;;10.30;100.00;95880.69;5116868;28;20179;-67
2023/01/01 06:43:33;;;;;;;1999.90;999.90;;;;;;;10.40;100.00;95882.63;5116989;28;20168;-68
2023/01/01 06:46:15;;;;;;;1999.90;999.90;;;;;;;10.51;100.00;95886.16;5117433;28;20172;-68
2023/01/01 06:48:41;;;;;;;1999.90;999.90;;;;;;;10.64;100.00;95892.78;5116703;28;20164;-66
2023/01/01 06:51:12;;;;;;;1999.90;999.90;;;;;;;10.67;100.00;95889.28;5116906;28;20164;-66
2023/01/01 06:53:38;;;;;;;1999.90;999.90;;;;;;;10.74;100.00;95878.34;5117054;28;20164;-64
2023/01/01 06:56:04;;;;;;;1999.90;999.90;;;;;;;10.97;100.00;95878.69;5116383;28;20180;-58
2023/01/01 06:58:29;;;;;;;1999.90;999.90;;;;;;;10.82;100.00;95879.91;5116712;28;20180;-64
2023/01/01 07:01:04;;;;;;;1999.90;999.90;;;;;;;10.76;100.00;95897.84;5117061;28;20511;-65
2023/01/01 07:03:29;;;;;;;1999.90;999.90;;;;;;;10.65;100.00;95908.00;5116919;28;20180;-66
2023/01/01 07:05:55;;;;;;;1999.90;999.90;;;;;;;10.58;100.00;95905.25;5116401;28;20168;-65
2023/01/01 07:08:20;;;;;;;1999.90;999.90;;;;;;;10.45;100.00;95899.41;5116668;28;20259;-65
2023/01/01 07:10:45;;;;;;;1999.90;999.90;;;;;;;10.44;100.00;95902.53;5117146;28;20267;-64
2023/01/01 07:13:11;;;;;;;1999.90;999.90;;;;;;;10.39;100.00;95911.13;5116426;28;20277;-60
2023/01/01 07:15:36;;;;;;;1999.90;999.90;;;;;;;10.39;100.00;95913.84;5116329;28;20244;-60
2023/01/01 07:18:01;;;;;;;1999.90;999.90;;;;;;;10.59;100.00;95917.78;5116265;28;20187;-61
2023/01/01 07:20:27;;;;;;;1999.90;999.90;;;;;;;10.90;100.00;95920.50;5117230;28;20180;-60
2023/01/01 07:22:52;;;;;;;1999.90;999.90;;;;;;;10.90;100.00;95920.50;5116428;28;20172;-61
2023/01/01 07:25:17;;;;;;;1999.90;999.90;;;;;;;11.30;100.00;95933.69;5115992;28;20178;-60
2023/01/01 07:27:43;;;;;;;1999.90;999.90;;;;;;;11.45;100.00;95934.44;5116175;28;20199;-60
2023/01/01 07:30:09;;;;;;;1999.90;999.90;;;;;;;11.59;100.00;95929.72;5115847;28;20228;-61
2023/01/01 07:32:34;;;;;;;1999.90;999.90;;;;;;;12.07;100.00;95927.16;5116008;28;20214;-58
2023/01/01 07:34:59;;;;;;;1999.90;999.90;;;;;;;12.88;100.00;95932.88;5116325;28;20179;-68
2023/01/01 07:37:25;;;;;;;1999.90;999.90;;;;;;;13.55;100.00;95933.03;5116573;28;20183;-67
2023/01/01 07:39:51;;;;;;;1999.90;999.90;;;;;;;14.08;100.00;95927.69;5116602;28;20179;-66
2023/01/01 07:42:16;;;;;;;1999.90;999.90;;;;;;;14.40;100.00;95939.06;5116145;28;20224;-66
2023/01/01 07:44:41;;;;;;;1999.90;999.90;;;;;;;14.74;100.00;95936.97;5116042;28;20266;-67
2023/01/01 07:47:20;;;;;;;1999.90;999.90;;;;;;;14.83;100.00;95950.97;5116097;28;20206;-70
2023/01/01 07:49:45;;;;;;;1999.90;999.90;;;;;;;15.06;100.00;95948.25;5115522;28;20639;-62
2023/01/01 07:52:11;;;;;;;1999.90;999.90;;;;;;;14.77;100.00;95955.38;5115645;28;20164;-61
2023/01/01 07:54:36;;;;;;;1999.90;999.90;;;;;;;14.72;100.00;95950.34;5115982;28;20263;-62
2023/01/01 07:57:01;;;;;;;1999.90;999.90;;;;;;;15.08;100.00;95945.84;5116023;28;20259;-61
2023/01/01 07:59:27;;;;;;;1999.90;999.90;;;;;;;15.40;100.00;95959.88;5115350;28;20172;-59
2023/01/01 08:01:52;;;;;;;1999.90;999.90;;;;;;;15.58;99.83;95963.09;5115723;28;20176;-59
2023/01/01 08:04:17;;;;;;;1999.90;999.90;;;;;;;15.67;99.79;95966.03;5115429;28;20200;-59
2023/01/01 08:06:43;;;;;;;1999.90;999.90;;;;;;;15.89;99.02;95966.44;5114365;28;20204;-59
2023/01/01 08:09:08;;;;;;;1999.90;999.90;;;;;;;15.62;96.95;95963.00;5115683;28;20176;-59
2023/01/01 08:11:34;;;;;;;1999.90;999.90;;;;;;;15.28;100.00;95965.94;5115330;28;20176;-59
2023/01/01 08:14:00;;;;;;;1999.90;999.90;;;;;;;15.29;100.00;95973.00;5115036;28;20286;-61
2023/01/01 08:16:25;;;;;;;1999.90;999.90;;;;;;;15.57;100.00;95967.03;5115309;28;20183;-60
2023/01/01 08:18:50;;;;;;;1999.90;999.90;;;;;;;15.50;98.00;95972.66;5115889;28;20180;-60
2023/01/01 08:21:16;;;;;;;1999.90;999.90;;;;;;;15.90;96.42;95957.75;5115338;28;20171;-60
2023/01/01 08:23:41;;;;;;;1999.90;999.90;;;;;;;15.99;94.72;95963.47;5115238;28;20638;-60
2023/01/01 08:26:12;;;;;;;1999.90;999.90;;;;;;;16.09;93.98;95959.72;5114596;28;20180;-61
2023/01/01 08:28:37;;;;;;;1999.90;999.90;;;;;;;16.20;93.31;95960.28;5115701;28;20252;-63
2023/01/01 08:31:03;;;;;;;1999.90;999.90;;;;;;;15.89;95.25;95961.69;5115672;28;20172;-60
2023/01/01 08:33:28;;;;;;;1999.90;999.90;;;;;;;15.96;95.34;95955.28;5116061;28;20168;-61
2023/01/01 08:35:54;;;;;;;1999.90;999.90;;;;;;;16.63;92.10;95959.38;5114555;28;20230;-60
2023/01/01 08:38:19;;;;;;;1999.90;999.90;;;;;;;17.22;87.70;95959.97;5115110;28;20180;-60
2023/01/01 08:40:44;;;;;;;1999.90;999.90;;;;;;;17.43;84.75;95959.44;5114915;28;20200;-60
2023/01/01 08:43:10;;;;;;;1999.90;999.90;;;;;;;17.52;83.62;95970.69;5114739;28;20275;-60
2023/01/01 08:45:35;;;;;;;1999.90;999.90;;;;;;;17.73;82.41;95970.09;5114590;28;20172;-67
2023/01/01 08:48:00;;;;;;;1999.90;999.90;;;;;;;17.79;82.27;95963.63;5114678;28;20328;-62
2023/01/01 08:50:26;;;;;;;1999.90;999.90;;;;;;;18.03;81.07;95964.16;5114759;28;20171;-62
2023/01/01 08:52:51;;;;;;;1999.90;999.90;;;;;;;18.33;79.08;95970.00;5114417;28;20232;-61
2023/01/01 08:55:16;;;;;;;1999.90;999.90;;;;;;;18.58;77.57;95970.06;5114544;28;20183;-62
2023/01/01 08:57:42;;;;;;;1999.90;999.90;;;;;;;18.86;74.73;95966.44;5114970;28;20187;-61
2023/01/01 09:00:08;;;;;;;1999.90;999.90;;;;;;;19.27;75.41;95971.88;5114506;28;20179;-62
2023/01/01 09:02:33;;;;;;;1999.90;999.90;;;;;;;19.57;71.57;95978.81;5115012;28;20176;-59
2023/01/01 09:04:59;;;;;;;1999.90;999.90;;;;;;;19.90;69.12;95968.97;5114752;28;20222;-69
2023/01/01 09:07:24;;;;;;;1999.90;999.90;;;;;;;20.21;70.16;95972.59;5114324;28;20195;-65
2023/01/01 09:09:49;;;;;;;1999.90;999.90;;;;;;;20.22;67.64;95979.72;5114412;28;20207;-65
2023/01/01 09:12:15;;;;;;;1999.90;999.90;;;;;;;20.07;67.94;95978.63;5114599;28;20219;-65
2023/01/01 09:14:41;;;;;;;1999.90;999.90;;;;;;;19.93;68.15;95984.69;5114756;28;20168;-65
2023/01/01 09:17:06;;;;;;;1999.90;999.90;;;;;;;20.30;66.47;95983.78;5113845;28;20198;-65
2023/01/01 09:19:31;;;;;;;1999.90;999.90;;;;;;;20.23;66.06;95991.59;5114328;28;20172;-66
2023/01/01 09:21:57;;;;;;;1999.90;999.90;;;;;;;20.10;66.40;95993.63;5113990;28;20163;-60
2023/01/01 09:24:22;;;;;;;1999.90;999.90;;;;;;;19.77;68.33;95995.94;5114180;28;20171;-57
2023/01/01 09:26:48;;;;;;;1999.90;999.90;;;;;;;19.69;70.70;95988.31;5114162;28;20620;-57
2023/01/01 09:29:19;;;;;;;1999.90;999.90;;;;;;;19.45;72.20;96001.78;5097832;28;20200;-58
2023/01/01 09:31:45;;;;;;;1999.90;999.90;;;;;;;19.52;74.45;95996.78;5113867;28;20713;-57
2023/01/01 09:34:10;;;;;;;1999.90;999.90;;;;;;;19.54;74.35;96004.66;5114421;28;20271;-57
2023/01/01 09:36:36;;;;;;;1999.90;999.90;;;;;;;19.53;74.32;96000.34;5114057;28;20212;-57
2023/01/01 09:39:01;;;;;;;1999.90;999.90;;;;;;;19.45;75.25;96005.31;5113917;28;20521;-58
2023/01/01 09:41:45;;;;;;;1999.90;999.90;;;;;;;19.74;75.27;96007.91;5114092;28;20176;-57
2023/01/01 09:44:34;;;;;;;1999.90;999.90;;;;;;;19.78;73.20;96003.06;5114070;28;20210;-79
2023/01/01 09:47:02;;;;;;;1999.90;999.90;;;;;;;20.03;75.64;95994.63;5114427;28;20286;-76
2023/01/01 09:49:38;;;;;;;1999.90;999.90;;;;;;;20.28;72.42;96000.09;5114418;28;20188;-73
2023/01/01 09:52:04;;;;;;;1999.90;999.90;;;;;;;20.46;71.55;95994.69;5114362;28;20167;-71
2023/01/01 09:54:38;;;;;;;1999.90;999.90;;;;;;;20.83;69.22;95982.56;5114554;28;20176;-74
2023/01/01 09:57:07;;;;;;;1999.90;999.90;;;;;;;20.67;70.76;95988.34;5113492;28;20251;-76
2023/01/01 09:59:33;;;;;;;1999.90;999.90;;;;;;;21.12;66.68;95991.38;5113771;28;20180;-57
2023/01/01 10:02:35;;;;;;;1999.90;999.90;;;;;;;21.26;69.02;95995.56;5114174;28;20511;-61
2023/01/01 10:05:03;;;;;;;1999.90;999.90;;;;;;;21.70;64.45;95986.59;5113822;28;20204;-62
2023/01/01 10:07:54;;;;;;;1999.90;999.90;;;;;;;21.86;61.44;95993.91;5114253;28;20208;-62
2023/01/01 10:10:35;;;;;;;1999.90;999.90;;;;;;;22.10;60.12;95992.84;5113765;28;20176;-61
2023/01/01 10:13:31;;;;;;;1999.90;999.90;;;;;;;22.28;59.86;95986.50;5113499;28;20223;-63
2023/01/01 10:16:13;;;;;;;1999.90;999.90;;;;;;;22.52;58.14;95981.09;5113696;28;20237;-62
2023/01/01 10:18:41;;;;;;;1999.90;999.90;;;;;;;22.73;56.48;95971.78;5113699;28;20195;-73
2023/01/01 10:21:28;;;;;;;1999.90;999.90;;;;;;;22.71;56.05;95974.25;5113478;28;20175;-64
2023/01/01 10:24:02;;;;;;;1999.90;999.90;;;;;;;22.57;58.73;95969.34;5113333;28;20176;-63
2023/01/01 10:26:30;;;;;;;1999.90;999.90;;;;;;;22.38;57.98;95969.34;5113672;28;20209;-65
2023/01/01 10:29:07;;;;;;;1999.90;999.90;;;;;;;22.09;57.18;95963.50;5114084;28;20198;-65
2023/01/01 10:31:35;;;;;;;1999.90;999.90;;;;;;;21.95;60.09;95969.66;5117393;28;20175;-65
2023/01/01 10:34:13;;;;;;;1999.90;999.90;;;;;;;21.74;59.97;95970.56;5117052;28;20176;-64
2023/01/01 10:36:38;;;;;;;1999.90;999.90;;;;;;;21.51;58.83;95962.78;5117870;28;20172;-62
2023/01/01 10:39:04;;;;;;;1999.90;999.90;;;;;;;21.38;60.54;95959.34;5117125;28;20224;-83
2023/01/01 10:41:29;;;;;;;1999.90;999.90;;;;;;;20.97;61.89;95956.25;5117699;28;20192;-83
2023/01/01 10:43:56;;;;;;;1999.90;999.90;;;;;;;20.47;64.97;95951.81;5117673;28;20206;-83
2023/01/01 10:46:23;;;;;;;1999.90;999.90;;;;;;;19.86;69.92;95940.59;5116792;28;20191;-82
2023/01/01 10:49:05;;;;;;;1999.90;999.90;;;;;;;19.66;71.80;95944.88;5117016;28;20222;-79
2023/01/01 10:51:31;;;;;;;1999.90;999.90;;;;;;;19.51;73.03;95952.88;5117541;28;20168;-78
2023/01/01 10:53:57;;;;;;;1999.90;999.90;;;;;;;19.41;72.67;95954.78;5117521;28;20187;-62
2023/01/01 10:56:23;;;;;;;1999.90;999.90;;;;;;;19.14;75.96;95939.84;5116839;28;20266;-80
2023/01/01 10:58:55;;;;;;;1999.90;999.90;;;;;;;18.87;77.60;95947.84;5116400;28;20168;-81
2023/01/01 11:01:30;;;;;;;1999.90;999.90;;;;;;;18.60;79.94;95941.97;5116969;28;20165;-79